sensor_id;sensor_type;location;lat;lon;timestamp;P1;durP1;ratioP1;P2;durP2;ratioP2
10537;SDS011;5317;49.048;8.468;2023-07-13T00:02:05;2.63;;;1.70;;
10537;SDS011;5317;49.048;8.468;2023-07-13T00:04:32;3.57;;;1.40;;
10537;SDS011;5317;49.048;8.468;2023-07-13T00:06:59;1.57;;;1.43;;
10537;SDS011;5317;49.048;8.468;2023-07-13T00:09:26;1.90;;;1.40;;
10537;SDS011;5317;49.048;8.468;2023-07-13T00:11:53;3.17;;;1.67;;
10537;SDS011;5317;49.048;8.468;2023-07-13T00:14:22;3.67;;;1.57;;
10537;SDS011;5317;49.048;8.468;2023-07-13T00:16:49;5.03;;;1.70;;
10537;SDS011;5317;49.048;8.468;2023-07-13T00:19:17;1.53;;;1.17;;
10537;SDS011;5317;49.048;8.468;2023-07-13T00:21:44;1.80;;;1.40;;
10537;SDS011;5317;49.048;8.468;2023-07-13T00:24:12;2.90;;;1.57;;
10537;SDS011;5317;49.048;8.468;2023-07-13T00:26:43;2.70;;;1.30;;
10537;SDS011;5317;49.048;8.468;2023-07-13T00:29:11;4.37;;;1.30;;
10537;SDS011;5317;49.048;8.468;2023-07-13T00:31:38;2.43;;;1.60;;
10537;SDS011;5317;49.048;8.468;2023-07-13T00:34:05;2.80;;;1.70;;
10537;SDS011;5317;49.048;8.468;2023-07-13T00:36:33;1.60;;;1.30;;
10537;SDS011;5317;49.048;8.468;2023-07-13T00:39:00;4.80;;;1.77;;
10537;SDS011;5317;49.048;8.468;2023-07-13T00:41:29;1.60;;;1.40;;
10537;SDS011;5317;49.048;8.468;2023-07-13T00:43:56;1.50;;;1.30;;
10537;SDS011;5317;49.048;8.468;2023-07-13T00:46:24;2.43;;;1.50;;
10537;SDS011;5317;49.048;8.468;2023-07-13T00:48:53;4.80;;;1.70;;
10537;SDS011;5317;49.048;8.468;2023-07-13T00:51:25;2.43;;;1.40;;
10537;SDS011;5317;49.048;8.468;2023-07-13T00:53:56;3.10;;;1.80;;
10537;SDS011;5317;49.048;8.468;2023-07-13T00:56:25;2.17;;;1.63;;
10537;SDS011;5317;49.048;8.468;2023-07-13T00:58:53;2.50;;;1.60;;
10537;SDS011;5317;49.048;8.468;2023-07-13T01:01:21;2.70;;;1.80;;
10537;SDS011;5317;49.048;8.468;2023-07-13T01:03:48;3.50;;;1.50;;
10537;SDS011;5317;49.048;8.468;2023-07-13T01:06:15;2.57;;;2.00;;
10537;SDS011;5317;49.048;8.468;2023-07-13T01:08:43;2.57;;;1.80;;
10537;SDS011;5317;49.048;8.468;2023-07-13T01:11:11;3.10;;;1.40;;
10537;SDS011;5317;49.048;8.468;2023-07-13T01:13:38;2.63;;;1.80;;
10537;SDS011;5317;49.048;8.468;2023-07-13T01:16:05;2.03;;;1.43;;
10537;SDS011;5317;49.048;8.468;2023-07-13T01:18:41;2.33;;;1.67;;
10537;SDS011;5317;49.048;8.468;2023-07-13T01:21:09;2.83;;;1.80;;
10537;SDS011;5317;49.048;8.468;2023-07-13T01:23:36;3.37;;;1.60;;
10537;SDS011;5317;49.048;8.468;2023-07-13T01:26:03;3.23;;;1.57;;
10537;SDS011;5317;49.048;8.468;2023-07-13T01:28:30;1.80;;;1.37;;
10537;SDS011;5317;49.048;8.468;2023-07-13T01:31:02;8.07;;;4.87;;
10537;SDS011;5317;49.048;8.468;2023-07-13T01:33:29;11.70;;;6.37;;
10537;SDS011;5317;49.048;8.468;2023-07-13T01:35:56;7.07;;;5.33;;
10537;SDS011;5317;49.048;8.468;2023-07-13T01:38:24;7.47;;;3.57;;
10537;SDS011;5317;49.048;8.468;2023-07-13T01:40:52;5.57;;;3.20;;
10537;SDS011;5317;49.048;8.468;2023-07-13T01:43:19;4.87;;;2.80;;
10537;SDS011;5317;49.048;8.468;2023-07-13T01:45:46;4.93;;;2.67;;
10537;SDS011;5317;49.048;8.468;2023-07-13T01:48:13;5.00;;;2.30;;
10537;SDS011;5317;49.048;8.468;2023-07-13T01:50:40;3.80;;;2.40;;
10537;SDS011;5317;49.048;8.468;2023-07-13T01:53:07;5.50;;;2.40;;
10537;SDS011;5317;49.048;8.468;2023-07-13T01:55:36;5.40;;;2.70;;
10537;SDS011;5317;49.048;8.468;2023-07-13T01:58:03;3.60;;;2.30;;
10537;SDS011;5317;49.048;8.468;2023-07-13T02:00:31;4.87;;;2.67;;
10537;SDS011;5317;49.048;8.468;2023-07-13T02:02:58;7.57;;;2.47;;
10537;SDS011;5317;49.048;8.468;2023-07-13T02:05:25;4.43;;;2.30;;
10537;SDS011;5317;49.048;8.468;2023-07-13T02:07:52;3.87;;;2.33;;
10537;SDS011;5317;49.048;8.468;2023-07-13T02:10:19;2.50;;;2.10;;
10537;SDS011;5317;49.048;8.468;2023-07-13T02:12:48;3.80;;;1.83;;
10537;SDS011;5317;49.048;8.468;2023-07-13T02:15:15;2.90;;;1.97;;
10537;SDS011;5317;49.048;8.468;2023-07-13T02:17:43;2.40;;;2.00;;
10537;SDS011;5317;49.048;8.468;2023-07-13T02:20:10;2.37;;;1.70;;
10537;SDS011;5317;49.048;8.468;2023-07-13T02:22:37;3.07;;;2.07;;
10537;SDS011;5317;49.048;8.468;2023-07-13T02:25:04;3.17;;;1.67;;
10537;SDS011;5317;49.048;8.468;2023-07-13T02:27:31;5.97;;;1.90;;
10537;SDS011;5317;49.048;8.468;2023-07-13T02:29:59;1.90;;;1.63;;
10537;SDS011;5317;49.048;8.468;2023-07-13T02:32:26;2.77;;;1.50;;
10537;SDS011;5317;49.048;8.468;2023-07-13T02:34:53;3.57;;;1.90;;
10537;SDS011;5317;49.048;8.468;2023-07-13T02:37:20;1.73;;;1.40;;
10537;SDS011;5317;49.048;8.468;2023-07-13T02:39:47;4.03;;;1.63;;
10537;SDS011;5317;49.048;8.468;2023-07-13T02:42:14;2.77;;;1.57;;
10537;SDS011;5317;49.048;8.468;2023-07-13T02:44:41;3.60;;;1.70;;
10537;SDS011;5317;49.048;8.468;2023-07-13T02:47:09;3.90;;;1.60;;
10537;SDS011;5317;49.048;8.468;2023-07-13T02:49:36;2.63;;;1.73;;
10537;SDS011;5317;49.048;8.468;2023-07-13T02:52:03;2.43;;;1.63;;
10537;SDS011;5317;49.048;8.468;2023-07-13T02:54:30;2.30;;;1.70;;
10537;SDS011;5317;49.048;8.468;2023-07-13T02:56:57;3.67;;;1.70;;
10537;SDS011;5317;49.048;8.468;2023-07-13T02:59:24;1.80;;;1.67;;
10537;SDS011;5317;49.048;8.468;2023-07-13T03:01:51;3.30;;;1.83;;
10537;SDS011;5317;49.048;8.468;2023-07-13T03:04:20;2.13;;;1.83;;
10537;SDS011;5317;49.048;8.468;2023-07-13T03:06:45;1.63;;;1.53;;
10537;SDS011;5317;49.048;8.468;2023-07-13T03:09:12;3.50;;;1.77;;
10537;SDS011;5317;49.048;8.468;2023-07-13T03:11:39;5.07;;;1.80;;
10537;SDS011;5317;49.048;8.468;2023-07-13T03:14:07;2.03;;;1.50;;
10537;SDS011;5317;49.048;8.468;2023-07-13T03:16:34;2.50;;;1.70;;
10537;SDS011;5317;49.048;8.468;2023-07-13T03:19:01;3.97;;;1.80;;
10537;SDS011;5317;49.048;8.468;2023-07-13T03:21:29;2.03;;;1.73;;
10537;SDS011;5317;49.048;8.468;2023-07-13T03:23:56;3.23;;;1.60;;
10537;SDS011;5317;49.048;8.468;2023-07-13T03:26:23;1.53;;;1.40;;
10537;SDS011;5317;49.048;8.468;2023-07-13T03:28:50;2.80;;;1.90;;
10537;SDS011;5317;49.048;8.468;2023-07-13T03:31:18;2.13;;;1.53;;
10537;SDS011;5317;49.048;8.468;2023-07-13T03:33:46;1.83;;;1.60;;
10537;SDS011;5317;49.048;8.468;2023-07-13T03:36:14;1.67;;;1.37;;
10537;SDS011;5317;49.048;8.468;2023-07-13T03:38:45;3.83;;;1.60;;
10537;SDS011;5317;49.048;8.468;2023-07-13T03:41:13;1.90;;;1.57;;
10537;SDS011;5317;49.048;8.468;2023-07-13T03:43:40;2.63;;;1.63;;
10537;SDS011;5317;49.048;8.468;2023-07-13T03:46:07;3.10;;;1.50;;
10537;SDS011;5317;49.048;8.468;2023-07-13T03:48:34;3.00;;;1.73;;
10537;SDS011;5317;49.048;8.468;2023-07-13T03:51:01;3.27;;;1.80;;
10537;SDS011;5317;49.048;8.468;2023-07-13T03:53:28;1.93;;;1.73;;
10537;SDS011;5317;49.048;8.468;2023-07-13T03:55:56;3.53;;;1.97;;
10537;SDS011;5317;49.048;8.468;2023-07-13T03:58:25;3.77;;;2.10;;
10537;SDS011;5317;49.048;8.468;2023-07-13T04:00:54;2.27;;;2.00;;
10537;SDS011;5317;49.048;8.468;2023-07-13T04:03:22;2.63;;;2.03;;
10537;SDS011;5317;49.048;8.468;2023-07-13T04:05:49;2.47;;;2.00;;
10537;SDS011;5317;49.048;8.468;2023-07-13T04:08:16;1.70;;;1.60;;
10537;SDS011;5317;49.048;8.468;2023-07-13T04:10:43;3.60;;;1.70;;
10537;SDS011;5317;49.048;8.468;2023-07-13T04:13:12;4.10;;;2.13;;
10537;SDS011;5317;49.048;8.468;2023-07-13T04:15:40;3.53;;;2.10;;
10537;SDS011;5317;49.048;8.468;2023-07-13T04:18:06;2.00;;;1.50;;
10537;SDS011;5317;49.048;8.468;2023-07-13T04:20:34;2.60;;;2.00;;
10537;SDS011;5317;49.048;8.468;2023-07-13T04:23:01;3.73;;;1.70;;
10537;SDS011;5317;49.048;8.468;2023-07-13T04:25:28;2.20;;;1.67;;
10537;SDS011;5317;49.048;8.468;2023-07-13T04:27:54;2.03;;;1.70;;
10537;SDS011;5317;49.048;8.468;2023-07-13T04:30:23;4.23;;;2.00;;
10537;SDS011;5317;49.048;8.468;2023-07-13T04:32:50;3.13;;;1.60;;
10537;SDS011;5317;49.048;8.468;2023-07-13T04:35:18;2.80;;;1.90;;
10537;SDS011;5317;49.048;8.468;2023-07-13T04:37:45;2.37;;;1.80;;
10537;SDS011;5317;49.048;8.468;2023-07-13T04:40:13;2.80;;;2.30;;
10537;SDS011;5317;49.048;8.468;2023-07-13T04:42:40;3.13;;;1.63;;
10537;SDS011;5317;49.048;8.468;2023-07-13T04:45:07;3.20;;;2.00;;
10537;SDS011;5317;49.048;8.468;2023-07-13T04:47:36;2.63;;;1.90;;
10537;SDS011;5317;49.048;8.468;2023-07-13T04:50:03;2.73;;;1.70;;
10537;SDS011;5317;49.048;8.468;2023-07-13T04:52:30;3.70;;;1.93;;
10537;SDS011;5317;49.048;8.468;2023-07-13T04:54:58;3.93;;;1.97;;
10537;SDS011;5317;49.048;8.468;2023-07-13T04:57:25;3.40;;;2.07;;
10537;SDS011;5317;49.048;8.468;2023-07-13T04:59:53;3.47;;;2.00;;
10537;SDS011;5317;49.048;8.468;2023-07-13T05:02:20;2.83;;;1.83;;
10537;SDS011;5317;49.048;8.468;2023-07-13T05:04:48;3.03;;;1.90;;
10537;SDS011;5317;49.048;8.468;2023-07-13T05:07:16;4.83;;;2.13;;
10537;SDS011;5317;49.048;8.468;2023-07-13T05:09:42;5.27;;;2.20;;
10537;SDS011;5317;49.048;8.468;2023-07-13T05:12:09;6.07;;;2.27;;
10537;SDS011;5317;49.048;8.468;2023-07-13T05:14:36;5.23;;;2.73;;
10537;SDS011;5317;49.048;8.468;2023-07-13T05:17:04;4.10;;;2.07;;
10537;SDS011;5317;49.048;8.468;2023-07-13T05:19:31;5.30;;;2.50;;
10537;SDS011;5317;49.048;8.468;2023-07-13T05:21:59;3.27;;;2.17;;
10537;SDS011;5317;49.048;8.468;2023-07-13T05:24:27;11.97;;;2.90;;
10537;SDS011;5317;49.048;8.468;2023-07-13T05:26:54;4.63;;;2.07;;
10537;SDS011;5317;49.048;8.468;2023-07-13T05:29:21;3.00;;;1.90;;
10537;SDS011;5317;49.048;8.468;2023-07-13T05:31:49;3.90;;;2.20;;
10537;SDS011;5317;49.048;8.468;2023-07-13T05:34:16;3.43;;;1.83;;
10537;SDS011;5317;49.048;8.468;2023-07-13T05:36:43;2.70;;;2.07;;
10537;SDS011;5317;49.048;8.468;2023-07-13T05:39:11;3.27;;;2.10;;
10537;SDS011;5317;49.048;8.468;2023-07-13T05:41:39;4.07;;;2.07;;
10537;SDS011;5317;49.048;8.468;2023-07-13T05:44:06;2.67;;;1.73;;
10537;SDS011;5317;49.048;8.468;2023-07-13T05:46:33;2.83;;;1.73;;
10537;SDS011;5317;49.048;8.468;2023-07-13T05:49:00;3.67;;;2.03;;
10537;SDS011;5317;49.048;8.468;2023-07-13T05:51:26;2.27;;;1.90;;
10537;SDS011;5317;49.048;8.468;2023-07-13T05:53:53;2.47;;;2.13;;
10537;SDS011;5317;49.048;8.468;2023-07-13T05:56:22;4.20;;;2.23;;
10537;SDS011;5317;49.048;8.468;2023-07-13T05:58:50;3.57;;;2.00;;
10537;SDS011;5317;49.048;8.468;2023-07-13T06:01:17;4.53;;;2.20;;
10537;SDS011;5317;49.048;8.468;2023-07-13T06:03:45;2.73;;;2.10;;
10537;SDS011;5317;49.048;8.468;2023-07-13T06:06:12;2.60;;;2.10;;
10537;SDS011;5317;49.048;8.468;2023-07-13T06:08:39;3.53;;;2.20;;
10537;SDS011;5317;49.048;8.468;2023-07-13T06:11:07;3.03;;;2.27;;
10537;SDS011;5317;49.048;8.468;2023-07-13T06:13:37;3.10;;;2.07;;
10537;SDS011;5317;49.048;8.468;2023-07-13T06:16:04;3.60;;;2.07;;
10537;SDS011;5317;49.048;8.468;2023-07-13T06:18:32;2.43;;;2.17;;
10537;SDS011;5317;49.048;8.468;2023-07-13T06:20:59;4.23;;;2.40;;
10537;SDS011;5317;49.048;8.468;2023-07-13T06:23:27;3.90;;;2.07;;
10537;SDS011;5317;49.048;8.468;2023-07-13T06:25:53;5.07;;;2.30;;
10537;SDS011;5317;49.048;8.468;2023-07-13T06:28:21;5.40;;;2.10;;
10537;SDS011;5317;49.048;8.468;2023-07-13T06:30:49;2.17;;;1.70;;
10537;SDS011;5317;49.048;8.468;2023-07-13T06:33:16;2.00;;;1.80;;
10537;SDS011;5317;49.048;8.468;2023-07-13T06:35:43;3.67;;;1.87;;
10537;SDS011;5317;49.048;8.468;2023-07-13T06:38:10;2.53;;;2.00;;
10537;SDS011;5317;49.048;8.468;2023-07-13T06:40:37;3.63;;;2.00;;
10537;SDS011;5317;49.048;8.468;2023-07-13T06:43:04;3.97;;;1.70;;
10537;SDS011;5317;49.048;8.468;2023-07-13T06:45:32;2.70;;;1.90;;
10537;SDS011;5317;49.048;8.468;2023-07-13T06:48:03;4.47;;;1.87;;
10537;SDS011;5317;49.048;8.468;2023-07-13T06:50:30;5.23;;;1.77;;
10537;SDS011;5317;49.048;8.468;2023-07-13T06:52:56;3.20;;;2.00;;
10537;SDS011;5317;49.048;8.468;2023-07-13T06:55:24;4.53;;;2.03;;
10537;SDS011;5317;49.048;8.468;2023-07-13T06:57:51;2.20;;;1.83;;
10537;SDS011;5317;49.048;8.468;2023-07-13T07:00:18;3.70;;;2.10;;
10537;SDS011;5317;49.048;8.468;2023-07-13T07:02:45;3.93;;;1.73;;
10537;SDS011;5317;49.048;8.468;2023-07-13T07:05:13;3.60;;;1.77;;
10537;SDS011;5317;49.048;8.468;2023-07-13T07:07:40;2.03;;;1.83;;
10537;SDS011;5317;49.048;8.468;2023-07-13T07:10:07;2.10;;;1.33;;
10537;SDS011;5317;49.048;8.468;2023-07-13T07:12:34;2.17;;;1.50;;
10537;SDS011;5317;49.048;8.468;2023-07-13T07:15:01;2.73;;;1.70;;
10537;SDS011;5317;49.048;8.468;2023-07-13T07:17:29;2.53;;;1.50;;
10537;SDS011;5317;49.048;8.468;2023-07-13T07:19:56;1.60;;;1.40;;
10537;SDS011;5317;49.048;8.468;2023-07-13T07:22:24;2.97;;;1.70;;
10537;SDS011;5317;49.048;8.468;2023-07-13T07:24:52;2.23;;;1.70;;
10537;SDS011;5317;49.048;8.468;2023-07-13T07:27:19;3.07;;;1.60;;
10537;SDS011;5317;49.048;8.468;2023-07-13T07:29:46;2.63;;;2.00;;
10537;SDS011;5317;49.048;8.468;2023-07-13T07:32:13;2.40;;;1.43;;
10537;SDS011;5317;49.048;8.468;2023-07-13T07:34:40;1.53;;;1.43;;
10537;SDS011;5317;49.048;8.468;2023-07-13T07:37:06;4.00;;;1.70;;
10537;SDS011;5317;49.048;8.468;2023-07-13T07:39:38;4.03;;;1.70;;
10537;SDS011;5317;49.048;8.468;2023-07-13T07:42:05;3.30;;;1.60;;
10537;SDS011;5317;49.048;8.468;2023-07-13T07:44:33;2.80;;;1.60;;
10537;SDS011;5317;49.048;8.468;2023-07-13T07:47:00;4.30;;;1.90;;
10537;SDS011;5317;49.048;8.468;2023-07-13T07:49:27;3.63;;;1.50;;
10537;SDS011;5317;49.048;8.468;2023-07-13T07:51:54;3.20;;;1.60;;
10537;SDS011;5317;49.048;8.468;2023-07-13T07:54:20;3.93;;;1.80;;
10537;SDS011;5317;49.048;8.468;2023-07-13T07:56:49;4.17;;;1.73;;
10537;SDS011;5317;49.048;8.468;2023-07-13T07:59:15;2.97;;;1.90;;
10537;SDS011;5317;49.048;8.468;2023-07-13T08:01:42;3.83;;;1.90;;
10537;SDS011;5317;49.048;8.468;2023-07-13T08:04:11;3.30;;;1.67;;
10537;SDS011;5317;49.048;8.468;2023-07-13T08:06:38;2.27;;;1.50;;
10537;SDS011;5317;49.048;8.468;2023-07-13T08:09:05;2.20;;;1.50;;
10537;SDS011;5317;49.048;8.468;2023-07-13T08:11:33;3.70;;;1.73;;
10537;SDS011;5317;49.048;8.468;2023-07-13T08:14:03;2.23;;;1.50;;
10537;SDS011;5317;49.048;8.468;2023-07-13T08:16:29;4.67;;;1.60;;
10537;SDS011;5317;49.048;8.468;2023-07-13T08:18:57;1.97;;;1.43;;
10537;SDS011;5317;49.048;8.468;2023-07-13T08:21:24;1.33;;;1.23;;
10537;SDS011;5317;49.048;8.468;2023-07-13T08:23:51;2.33;;;1.50;;
10537;SDS011;5317;49.048;8.468;2023-07-13T08:26:18;2.90;;;1.57;;
10537;SDS011;5317;49.048;8.468;2023-07-13T08:28:46;2.67;;;1.53;;
10537;SDS011;5317;49.048;8.468;2023-07-13T08:31:15;4.67;;;1.50;;
10537;SDS011;5317;49.048;8.468;2023-07-13T08:33:42;2.37;;;1.63;;
10537;SDS011;5317;49.048;8.468;2023-07-13T08:36:08;2.67;;;1.53;;
10537;SDS011;5317;49.048;8.468;2023-07-13T08:38:35;3.63;;;1.87;;
10537;SDS011;5317;49.048;8.468;2023-07-13T08:41:09;2.87;;;1.60;;
10537;SDS011;5317;49.048;8.468;2023-07-13T08:43:38;3.90;;;1.50;;
10537;SDS011;5317;49.048;8.468;2023-07-13T08:46:07;2.23;;;1.60;;
10537;SDS011;5317;49.048;8.468;2023-07-13T08:48:41;3.07;;;1.50;;
10537;SDS011;5317;49.048;8.468;2023-07-13T08:51:17;1.90;;;1.43;;
10537;SDS011;5317;49.048;8.468;2023-07-13T08:53:59;2.37;;;1.40;;
10537;SDS011;5317;49.048;8.468;2023-07-13T08:56:28;3.27;;;1.40;;
10537;SDS011;5317;49.048;8.468;2023-07-13T08:58:57;2.10;;;1.30;;
10537;SDS011;5317;49.048;8.468;2023-07-13T09:01:28;3.20;;;1.80;;
10537;SDS011;5317;49.048;8.468;2023-07-13T09:04:02;4.17;;;1.53;;
10537;SDS011;5317;49.048;8.468;2023-07-13T09:06:34;3.77;;;2.00;;
10537;SDS011;5317;49.048;8.468;2023-07-13T09:09:17;2.27;;;1.50;;
10537;SDS011;5317;49.048;8.468;2023-07-13T09:11:54;3.17;;;1.60;;
10537;SDS011;5317;49.048;8.468;2023-07-13T09:14:33;2.43;;;1.20;;
10537;SDS011;5317;49.048;8.468;2023-07-13T09:17:10;2.50;;;1.30;;
10537;SDS011;5317;49.048;8.468;2023-07-13T09:19:44;2.80;;;1.20;;
10537;SDS011;5317;49.048;8.468;2023-07-13T09:22:17;2.87;;;1.40;;
10537;SDS011;5317;49.048;8.468;2023-07-13T09:24:54;1.53;;;1.43;;
10537;SDS011;5317;49.048;8.468;2023-07-13T09:27:27;5.40;;;1.47;;
10537;SDS011;5317;49.048;8.468;2023-07-13T09:30:03;4.63;;;1.60;;
10537;SDS011;5317;49.048;8.468;2023-07-13T09:32:50;3.50;;;1.73;;
10537;SDS011;5317;49.048;8.468;2023-07-13T09:35:23;3.73;;;1.50;;
10537;SDS011;5317;49.048;8.468;2023-07-13T09:37:56;2.67;;;1.70;;
10537;SDS011;5317;49.048;8.468;2023-07-13T09:40:28;2.73;;;1.63;;
10537;SDS011;5317;49.048;8.468;2023-07-13T09:43:02;2.47;;;1.43;;
10537;SDS011;5317;49.048;8.468;2023-07-13T09:45:32;2.60;;;1.53;;
10537;SDS011;5317;49.048;8.468;2023-07-13T09:48:04;1.80;;;1.40;;
10537;SDS011;5317;49.048;8.468;2023-07-13T09:50:34;2.93;;;1.50;;
10537;SDS011;5317;49.048;8.468;2023-07-13T09:53:01;3.70;;;1.63;;
10537;SDS011;5317;49.048;8.468;2023-07-13T09:55:30;2.87;;;1.70;;
10537;SDS011;5317;49.048;8.468;2023-07-13T09:58:02;1.97;;;1.30;;
10537;SDS011;5317;49.048;8.468;2023-07-13T10:00:31;2.03;;;1.60;;
10537;SDS011;5317;49.048;8.468;2023-07-13T10:02:59;1.60;;;1.20;;
10537;SDS011;5317;49.048;8.468;2023-07-13T10:05:40;3.23;;;1.60;;
10537;SDS011;5317;49.048;8.468;2023-07-13T10:08:22;3.93;;;1.20;;
10537;SDS011;5317;49.048;8.468;2023-07-13T10:10:53;3.63;;;1.43;;
10537;SDS011;5317;49.048;8.468;2023-07-13T10:13:29;4.00;;;1.43;;
10537;SDS011;5317;49.048;8.468;2023-07-13T10:16:01;3.67;;;1.43;;
10537;SDS011;5317;49.048;8.468;2023-07-13T10:18:31;4.10;;;1.50;;
10537;SDS011;5317;49.048;8.468;2023-07-13T10:21:11;4.90;;;1.70;;
10537;SDS011;5317;49.048;8.468;2023-07-13T10:23:41;4.53;;;1.67;;
10537;SDS011;5317;49.048;8.468;2023-07-13T10:26:11;2.93;;;1.57;;
10537;SDS011;5317;49.048;8.468;2023-07-13T10:28:42;3.00;;;1.50;;
10537;SDS011;5317;49.048;8.468;2023-07-13T10:31:13;2.97;;;1.53;;
10537;SDS011;5317;49.048;8.468;2023-07-13T10:33:42;3.87;;;1.67;;
10537;SDS011;5317;49.048;8.468;2023-07-13T10:36:15;1.60;;;1.50;;
10537;SDS011;5317;49.048;8.468;2023-07-13T10:38:47;4.60;;;1.60;;
10537;SDS011;5317;49.048;8.468;2023-07-13T10:41:18;3.27;;;1.60;;
10537;SDS011;5317;49.048;8.468;2023-07-13T10:43:49;3.83;;;1.63;;
10537;SDS011;5317;49.048;8.468;2023-07-13T10:46:19;1.87;;;1.40;;
10537;SDS011;5317;49.048;8.468;2023-07-13T10:48:48;3.17;;;1.67;;
10537;SDS011;5317;49.048;8.468;2023-07-13T10:51:19;2.50;;;1.57;;
10537;SDS011;5317;49.048;8.468;2023-07-13T10:53:47;2.10;;;1.60;;
10537;SDS011;5317;49.048;8.468;2023-07-13T10:56:34;2.20;;;1.47;;
10537;SDS011;5317;49.048;8.468;2023-07-13T10:59:02;3.20;;;1.60;;
10537;SDS011;5317;49.048;8.468;2023-07-13T11:01:45;2.67;;;1.70;;
10537;SDS011;5317;49.048;8.468;2023-07-13T11:04:16;2.53;;;1.67;;
10537;SDS011;5317;49.048;8.468;2023-07-13T11:06:48;3.77;;;2.00;;
10537;SDS011;5317;49.048;8.468;2023-07-13T11:09:28;5.43;;;2.00;;
10537;SDS011;5317;49.048;8.468;2023-07-13T11:11:59;3.90;;;1.50;;
10537;SDS011;5317;49.048;8.468;2023-07-13T11:14:29;1.37;;;1.27;;
10537;SDS011;5317;49.048;8.468;2023-07-13T11:16:57;2.50;;;1.70;;
10537;SDS011;5317;49.048;8.468;2023-07-13T11:19:37;2.33;;;1.60;;
10537;SDS011;5317;49.048;8.468;2023-07-13T11:22:14;1.40;;;1.30;;
10537;SDS011;5317;49.048;8.468;2023-07-13T11:24:56;2.50;;;1.60;;
10537;SDS011;5317;49.048;8.468;2023-07-13T11:27:34;2.17;;;1.67;;
10537;SDS011;5317;49.048;8.468;2023-07-13T11:30:17;4.33;;;1.77;;
10537;SDS011;5317;49.048;8.468;2023-07-13T11:32:50;2.20;;;1.70;;
10537;SDS011;5317;49.048;8.468;2023-07-13T11:35:31;2.60;;;1.60;;
10537;SDS011;5317;49.048;8.468;2023-07-13T11:38:03;4.33;;;1.70;;
10537;SDS011;5317;49.048;8.468;2023-07-13T11:40:38;1.53;;;1.40;;
10537;SDS011;5317;49.048;8.468;2023-07-13T11:43:06;4.00;;;1.60;;
10537;SDS011;5317;49.048;8.468;2023-07-13T11:45:33;3.40;;;1.57;;
10537;SDS011;5317;49.048;8.468;2023-07-13T11:48:00;2.97;;;1.70;;
10537;SDS011;5317;49.048;8.468;2023-07-13T11:50:27;3.27;;;1.80;;
10537;SDS011;5317;49.048;8.468;2023-07-13T11:52:54;2.53;;;1.30;;
10537;SDS011;5317;49.048;8.468;2023-07-13T11:55:26;3.13;;;1.63;;
10537;SDS011;5317;49.048;8.468;2023-07-13T11:57:56;2.43;;;1.67;;
10537;SDS011;5317;49.048;8.468;2023-07-13T12:00:26;3.50;;;1.90;;
10537;SDS011;5317;49.048;8.468;2023-07-13T12:02:57;3.60;;;1.80;;
10537;SDS011;5317;49.048;8.468;2023-07-13T12:05:27;3.13;;;1.80;;
10537;SDS011;5317;49.048;8.468;2023-07-13T12:07:56;3.40;;;1.70;;
10537;SDS011;5317;49.048;8.468;2023-07-13T12:10:24;3.57;;;2.00;;
10537;SDS011;5317;49.048;8.468;2023-07-13T12:12:54;3.90;;;1.70;;
10537;SDS011;5317;49.048;8.468;2023-07-13T12:15:23;6.47;;;1.77;;
10537;SDS011;5317;49.048;8.468;2023-07-13T12:17:57;7.80;;;1.60;;
10537;SDS011;5317;49.048;8.468;2023-07-13T12:20:24;2.80;;;1.80;;
10537;SDS011;5317;49.048;8.468;2023-07-13T12:22:53;2.63;;;1.60;;
10537;SDS011;5317;49.048;8.468;2023-07-13T12:25:20;3.83;;;1.50;;
10537;SDS011;5317;49.048;8.468;2023-07-13T12:27:50;1.80;;;1.50;;
10537;SDS011;5317;49.048;8.468;2023-07-13T12:30:23;2.43;;;1.70;;
10537;SDS011;5317;49.048;8.468;2023-07-13T12:32:58;1.87;;;1.60;;
10537;SDS011;5317;49.048;8.468;2023-07-13T12:35:28;3.63;;;1.80;;
10537;SDS011;5317;49.048;8.468;2023-07-13T12:38:00;1.97;;;1.57;;
10537;SDS011;5317;49.048;8.468;2023-07-13T12:40:33;2.77;;;1.70;;
10537;SDS011;5317;49.048;8.468;2023-07-13T12:43:03;3.27;;;1.70;;
10537;SDS011;5317;49.048;8.468;2023-07-13T12:45:32;1.83;;;1.53;;
10537;SDS011;5317;49.048;8.468;2023-07-13T12:48:04;2.37;;;1.60;;
10537;SDS011;5317;49.048;8.468;2023-07-13T12:50:36;2.00;;;1.60;;
10537;SDS011;5317;49.048;8.468;2023-07-13T12:53:09;2.23;;;1.60;;
10537;SDS011;5317;49.048;8.468;2023-07-13T12:55:40;4.03;;;1.67;;
10537;SDS011;5317;49.048;8.468;2023-07-13T12:58:13;4.40;;;1.90;;
10537;SDS011;5317;49.048;8.468;2023-07-13T13:00:48;3.13;;;1.70;;
10537;SDS011;5317;49.048;8.468;2023-07-13T13:03:21;3.13;;;1.60;;
10537;SDS011;5317;49.048;8.468;2023-07-13T13:06:01;3.33;;;1.60;;
10537;SDS011;5317;49.048;8.468;2023-07-13T13:08:31;3.07;;;1.60;;
10537;SDS011;5317;49.048;8.468;2023-07-13T13:10:59;2.90;;;1.53;;
10537;SDS011;5317;49.048;8.468;2023-07-13T13:13:28;2.93;;;1.73;;
10537;SDS011;5317;49.048;8.468;2023-07-13T13:15:55;1.90;;;1.27;;
10537;SDS011;5317;49.048;8.468;2023-07-13T13:18:23;1.97;;;1.53;;
10537;SDS011;5317;49.048;8.468;2023-07-13T13:20:50;3.03;;;1.53;;
10537;SDS011;5317;49.048;8.468;2023-07-13T13:23:18;1.73;;;1.40;;
10537;SDS011;5317;49.048;8.468;2023-07-13T13:25:48;3.50;;;1.47;;
10537;SDS011;5317;49.048;8.468;2023-07-13T13:28:17;1.40;;;1.30;;
10537;SDS011;5317;49.048;8.468;2023-07-13T13:30:48;2.83;;;1.70;;
10537;SDS011;5317;49.048;8.468;2023-07-13T13:33:18;3.93;;;1.60;;
10537;SDS011;5317;49.048;8.468;2023-07-13T13:35:46;3.00;;;1.60;;
10537;SDS011;5317;49.048;8.468;2023-07-13T13:38:14;2.70;;;1.67;;
10537;SDS011;5317;49.048;8.468;2023-07-13T13:40:43;2.90;;;1.43;;
10537;SDS011;5317;49.048;8.468;2023-07-13T13:43:14;4.13;;;1.73;;
10537;SDS011;5317;49.048;8.468;2023-07-13T13:45:42;1.47;;;1.30;;
10537;SDS011;5317;49.048;8.468;2023-07-13T13:48:15;1.40;;;1.30;;
10537;SDS011;5317;49.048;8.468;2023-07-13T13:50:43;2.47;;;1.30;;
10537;SDS011;5317;49.048;8.468;2023-07-13T13:53:11;2.10;;;1.40;;
10537;SDS011;5317;49.048;8.468;2023-07-13T13:55:39;3.53;;;1.40;;
10537;SDS011;5317;49.048;8.468;2023-07-13T13:58:07;2.13;;;1.37;;
10537;SDS011;5317;49.048;8.468;2023-07-13T14:00:34;3.70;;;1.60;;
10537;SDS011;5317;49.048;8.468;2023-07-13T14:03:01;1.83;;;1.23;;
10537;SDS011;5317;49.048;8.468;2023-07-13T14:05:30;4.17;;;1.47;;
10537;SDS011;5317;49.048;8.468;2023-07-13T14:07:57;2.80;;;1.53;;
10537;SDS011;5317;49.048;8.468;2023-07-13T14:10:25;3.57;;;1.50;;
10537;SDS011;5317;49.048;8.468;2023-07-13T14:12:53;1.80;;;1.47;;
10537;SDS011;5317;49.048;8.468;2023-07-13T14:15:22;1.63;;;1.20;;
10537;SDS011;5317;49.048;8.468;2023-07-13T14:17:50;3.10;;;1.37;;
10537;SDS011;5317;49.048;8.468;2023-07-13T14:20:18;2.70;;;1.50;;
10537;SDS011;5317;49.048;8.468;2023-07-13T14:22:47;2.07;;;1.53;;
10537;SDS011;5317;49.048;8.468;2023-07-13T14:25:15;2.97;;;1.50;;
10537;SDS011;5317;49.048;8.468;2023-07-13T14:27:43;1.97;;;1.37;;
10537;SDS011;5317;49.048;8.468;2023-07-13T14:30:14;4.03;;;1.70;;
10537;SDS011;5317;49.048;8.468;2023-07-13T14:32:42;2.33;;;1.40;;
10537;SDS011;5317;49.048;8.468;2023-07-13T14:35:10;2.60;;;1.43;;
10537;SDS011;5317;49.048;8.468;2023-07-13T14:37:38;2.47;;;1.67;;
10537;SDS011;5317;49.048;8.468;2023-07-13T14:40:13;2.70;;;1.53;;
10537;SDS011;5317;49.048;8.468;2023-07-13T14:42:41;4.40;;;1.37;;
10537;SDS011;5317;49.048;8.468;2023-07-13T14:45:12;4.70;;;1.70;;
10537;SDS011;5317;49.048;8.468;2023-07-13T14:47:40;3.10;;;1.40;;
10537;SDS011;5317;49.048;8.468;2023-07-13T14:50:12;2.37;;;1.33;;
10537;SDS011;5317;49.048;8.468;2023-07-13T14:52:40;1.60;;;1.50;;
10537;SDS011;5317;49.048;8.468;2023-07-13T14:55:09;2.43;;;1.70;;
10537;SDS011;5317;49.048;8.468;2023-07-13T14:57:38;2.00;;;1.60;;
10537;SDS011;5317;49.048;8.468;2023-07-13T15:00:09;1.50;;;1.40;;
10537;SDS011;5317;49.048;8.468;2023-07-13T15:02:41;2.03;;;1.53;;
10537;SDS011;5317;49.048;8.468;2023-07-13T15:05:14;2.53;;;1.53;;
10537;SDS011;5317;49.048;8.468;2023-07-13T15:07:42;2.30;;;1.40;;
10537;SDS011;5317;49.048;8.468;2023-07-13T15:10:13;3.27;;;1.53;;
10537;SDS011;5317;49.048;8.468;2023-07-13T15:12:43;2.60;;;1.50;;